sensor_id;sensor_type;location;lat;lon;timestamp;P1;durP1;ratioP1;P2;durP2;ratioP2
68509;SDS011;55512;50.102;19.958;2023-04-25T00:00:33;23.20;;;14.70;;
68509;SDS011;55512;50.102;19.958;2023-04-25T00:02:59;22.10;;;14.10;;
68509;SDS011;55512;50.102;19.958;2023-04-25T00:05:26;14.20;;;8.40;;
68509;SDS011;55512;50.102;19.958;2023-04-25T00:07:52;10.50;;;5.70;;
68509;SDS011;55512;50.102;19.958;2023-04-25T00:10:19;7.50;;;3.50;;
68509;SDS011;55512;50.102;19.958;2023-04-25T00:12:45;8.70;;;4.20;;
68509;SDS011;55512;50.102;19.958;2023-04-25T00:15:11;6.50;;;3.50;;
68509;SDS011;55512;50.102;19.958;2023-04-25T00:17:37;6.70;;;3.00;;
68509;SDS011;55512;50.102;19.958;2023-04-25T00:20:03;6.70;;;2.80;;
68509;SDS011;55512;50.102;19.958;2023-04-25T00:22:36;4.50;;;2.00;;
68509;SDS011;55512;50.102;19.958;2023-04-25T00:25:06;6.00;;;2.00;;
68509;SDS011;55512;50.102;19.958;2023-04-25T00:27:32;4.80;;;2.10;;
68509;SDS011;55512;50.102;19.958;2023-04-25T00:29:58;3.90;;;1.70;;
68509;SDS011;55512;50.102;19.958;2023-04-25T00:32:23;3.90;;;1.50;;
68509;SDS011;55512;50.102;19.958;2023-04-25T00:34:49;5.10;;;1.60;;
68509;SDS011;55512;50.102;19.958;2023-04-25T00:37:14;4.30;;;1.50;;
68509;SDS011;55512;50.102;19.958;2023-04-25T00:39:40;3.10;;;1.00;;
68509;SDS011;55512;50.102;19.958;2023-04-25T00:42:05;3.90;;;1.40;;
68509;SDS011;55512;50.102;19.958;2023-04-25T00:44:33;4.30;;;1.60;;
68509;SDS011;55512;50.102;19.958;2023-04-25T00:47:01;2.70;;;1.10;;
68509;SDS011;55512;50.102;19.958;2023-04-25T00:49:27;2.70;;;1.00;;
68509;SDS011;55512;50.102;19.958;2023-04-25T00:51:53;3.40;;;1.20;;
68509;SDS011;55512;50.102;19.958;2023-04-25T00:54:19;2.70;;;1.10;;
68509;SDS011;55512;50.102;19.958;2023-04-25T00:56:45;2.30;;;0.70;;
68509;SDS011;55512;50.102;19.958;2023-04-25T00:59:11;4.60;;;1.50;;
68509;SDS011;55512;50.102;19.958;2023-04-25T01:01:38;5.00;;;1.60;;
68509;SDS011;55512;50.102;19.958;2023-04-25T01:04:04;4.10;;;1.40;;
68509;SDS011;55512;50.102;19.958;2023-04-25T01:06:29;4.40;;;1.40;;
68509;SDS011;55512;50.102;19.958;2023-04-25T01:08:56;3.70;;;1.30;;
68509;SDS011;55512;50.102;19.958;2023-04-25T01:11:21;4.40;;;1.60;;
68509;SDS011;55512;50.102;19.958;2023-04-25T01:13:47;4.20;;;1.70;;
68509;SDS011;55512;50.102;19.958;2023-04-25T01:16:12;3.50;;;1.40;;
68509;SDS011;55512;50.102;19.958;2023-04-25T01:18:38;4.70;;;1.60;;
68509;SDS011;55512;50.102;19.958;2023-04-25T01:21:10;3.50;;;1.10;;
68509;SDS011;55512;50.102;19.958;2023-04-25T01:23:38;2.80;;;1.30;;
68509;SDS011;55512;50.102;19.958;2023-04-25T01:26:10;4.30;;;1.40;;
68509;SDS011;55512;50.102;19.958;2023-04-25T01:28:38;4.20;;;1.40;;
68509;SDS011;55512;50.102;19.958;2023-04-25T01:31:06;4.10;;;1.70;;
68509;SDS011;55512;50.102;19.958;2023-04-25T01:33:32;3.70;;;1.60;;
68509;SDS011;55512;50.102;19.958;2023-04-25T01:35:58;4.40;;;1.90;;
68509;SDS011;55512;50.102;19.958;2023-04-25T01:38:23;4.00;;;1.70;;
68509;SDS011;55512;50.102;19.958;2023-04-25T01:40:50;5.50;;;1.70;;
68509;SDS011;55512;50.102;19.958;2023-04-25T01:43:17;5.20;;;1.50;;
68509;SDS011;55512;50.102;19.958;2023-04-25T01:45:43;3.60;;;1.40;;
68509;SDS011;55512;50.102;19.958;2023-04-25T01:48:13;3.30;;;1.20;;
68509;SDS011;55512;50.102;19.958;2023-04-25T01:50:40;4.30;;;1.70;;
68509;SDS011;55512;50.102;19.958;2023-04-25T01:53:07;5.50;;;1.80;;
68509;SDS011;55512;50.102;19.958;2023-04-25T01:55:34;4.30;;;1.70;;
68509;SDS011;55512;50.102;19.958;2023-04-25T01:58:02;4.50;;;1.80;;
68509;SDS011;55512;50.102;19.958;2023-04-25T02:00:28;4.00;;;1.80;;
68509;SDS011;55512;50.102;19.958;2023-04-25T02:02:57;4.10;;;1.50;;
68509;SDS011;55512;50.102;19.958;2023-04-25T02:05:23;5.10;;;2.40;;
68509;SDS011;55512;50.102;19.958;2023-04-25T02:07:49;4.40;;;1.90;;
68509;SDS011;55512;50.102;19.958;2023-04-25T02:10:14;4.00;;;1.90;;
68509;SDS011;55512;50.102;19.958;2023-04-25T02:12:40;4.90;;;2.10;;
68509;SDS011;55512;50.102;19.958;2023-04-25T02:15:05;5.30;;;2.30;;
68509;SDS011;55512;50.102;19.958;2023-04-25T02:17:31;5.90;;;2.20;;
68509;SDS011;55512;50.102;19.958;2023-04-25T02:19:57;5.50;;;2.10;;
68509;SDS011;55512;50.102;19.958;2023-04-25T02:22:22;5.50;;;2.50;;
68509;SDS011;55512;50.102;19.958;2023-04-25T02:24:48;3.90;;;1.60;;
68509;SDS011;55512;50.102;19.958;2023-04-25T02:27:13;4.90;;;2.20;;
68509;SDS011;55512;50.102;19.958;2023-04-25T02:29:39;5.60;;;2.60;;
68509;SDS011;55512;50.102;19.958;2023-04-25T02:32:04;5.00;;;2.30;;
68509;SDS011;55512;50.102;19.958;2023-04-25T02:34:30;5.10;;;2.40;;
68509;SDS011;55512;50.102;19.958;2023-04-25T02:36:55;5.80;;;2.80;;
68509;SDS011;55512;50.102;19.958;2023-04-25T02:39:21;5.50;;;2.50;;
68509;SDS011;55512;50.102;19.958;2023-04-25T02:41:47;5.00;;;2.60;;
68509;SDS011;55512;50.102;19.958;2023-04-25T02:44:12;5.20;;;2.40;;
68509;SDS011;55512;50.102;19.958;2023-04-25T02:46:38;5.80;;;2.80;;
68509;SDS011;55512;50.102;19.958;2023-04-25T02:49:04;5.80;;;2.60;;
68509;SDS011;55512;50.102;19.958;2023-04-25T02:51:30;6.20;;;3.10;;
68509;SDS011;55512;50.102;19.958;2023-04-25T02:53:55;6.40;;;3.10;;
68509;SDS011;55512;50.102;19.958;2023-04-25T02:56:21;6.90;;;3.00;;
68509;SDS011;55512;50.102;19.958;2023-04-25T02:58:46;6.20;;;3.10;;
68509;SDS011;55512;50.102;19.958;2023-04-25T03:01:11;6.00;;;2.90;;
68509;SDS011;55512;50.102;19.958;2023-04-25T03:03:37;7.00;;;3.00;;
68509;SDS011;55512;50.102;19.958;2023-04-25T03:06:02;6.80;;;2.90;;
68509;SDS011;55512;50.102;19.958;2023-04-25T03:08:28;5.80;;;2.80;;
68509;SDS011;55512;50.102;19.958;2023-04-25T03:10:57;6.30;;;2.80;;
68509;SDS011;55512;50.102;19.958;2023-04-25T03:13:24;6.70;;;3.50;;
68509;SDS011;55512;50.102;19.958;2023-04-25T03:15:49;6.30;;;3.10;;
68509;SDS011;55512;50.102;19.958;2023-04-25T03:18:15;4.80;;;2.20;;
68509;SDS011;55512;50.102;19.958;2023-04-25T03:20:41;5.30;;;2.30;;
68509;SDS011;55512;50.102;19.958;2023-04-25T03:23:07;5.40;;;2.60;;
68509;SDS011;55512;50.102;19.958;2023-04-25T03:25:32;4.60;;;2.40;;
68509;SDS011;55512;50.102;19.958;2023-04-25T03:27:58;6.70;;;2.50;;
68509;SDS011;55512;50.102;19.958;2023-04-25T03:30:23;5.50;;;2.50;;
68509;SDS011;55512;50.102;19.958;2023-04-25T03:32:48;6.20;;;2.70;;
68509;SDS011;55512;50.102;19.958;2023-04-25T03:35:14;5.20;;;2.40;;
68509;SDS011;55512;50.102;19.958;2023-04-25T03:37:40;5.00;;;2.50;;
68509;SDS011;55512;50.102;19.958;2023-04-25T03:40:06;5.60;;;2.70;;
68509;SDS011;55512;50.102;19.958;2023-04-25T03:42:32;5.10;;;2.50;;
68509;SDS011;55512;50.102;19.958;2023-04-25T03:44:57;5.40;;;2.90;;
68509;SDS011;55512;50.102;19.958;2023-04-25T03:47:22;5.70;;;2.70;;
68509;SDS011;55512;50.102;19.958;2023-04-25T03:49:48;7.90;;;3.30;;
68509;SDS011;55512;50.102;19.958;2023-04-25T03:52:14;7.00;;;3.00;;
68509;SDS011;55512;50.102;19.958;2023-04-25T03:54:40;5.40;;;2.40;;
68509;SDS011;55512;50.102;19.958;2023-04-25T03:57:05;5.80;;;2.50;;
68509;SDS011;55512;50.102;19.958;2023-04-25T03:59:31;8.10;;;3.40;;
68509;SDS011;55512;50.102;19.958;2023-04-25T04:01:56;6.50;;;2.70;;
68509;SDS011;55512;50.102;19.958;2023-04-25T04:04:22;7.70;;;4.40;;
68509;SDS011;55512;50.102;19.958;2023-04-25T04:06:47;7.10;;;3.50;;
68509;SDS011;55512;50.102;19.958;2023-04-25T04:09:13;7.60;;;4.00;;
68509;SDS011;55512;50.102;19.958;2023-04-25T04:11:39;9.30;;;3.90;;
68509;SDS011;55512;50.102;19.958;2023-04-25T04:14:05;8.60;;;4.70;;
68509;SDS011;55512;50.102;19.958;2023-04-25T04:16:31;8.30;;;4.10;;
68509;SDS011;55512;50.102;19.958;2023-04-25T04:18:57;8.30;;;4.10;;
68509;SDS011;55512;50.102;19.958;2023-04-25T04:21:22;9.00;;;4.20;;
68509;SDS011;55512;50.102;19.958;2023-04-25T04:23:48;8.40;;;4.80;;
68509;SDS011;55512;50.102;19.958;2023-04-25T04:26:14;7.70;;;4.00;;
68509;SDS011;55512;50.102;19.958;2023-04-25T04:28:41;7.80;;;4.50;;
68509;SDS011;55512;50.102;19.958;2023-04-25T04:31:09;8.20;;;4.50;;
68509;SDS011;55512;50.102;19.958;2023-04-25T04:33:35;8.00;;;4.10;;
68509;SDS011;55512;50.102;19.958;2023-04-25T04:36:02;9.20;;;4.60;;
68509;SDS011;55512;50.102;19.958;2023-04-25T04:38:28;7.60;;;4.10;;
68509;SDS011;55512;50.102;19.958;2023-04-25T04:40:54;8.10;;;4.60;;
68509;SDS011;55512;50.102;19.958;2023-04-25T04:43:21;8.30;;;4.70;;
68509;SDS011;55512;50.102;19.958;2023-04-25T04:45:48;8.90;;;4.50;;
68509;SDS011;55512;50.102;19.958;2023-04-25T04:48:14;7.80;;;4.00;;
68509;SDS011;55512;50.102;19.958;2023-04-25T04:50:39;8.50;;;4.30;;
68509;SDS011;55512;50.102;19.958;2023-04-25T04:53:06;8.80;;;4.40;;
68509;SDS011;55512;50.102;19.958;2023-04-25T04:55:32;6.60;;;3.60;;
68509;SDS011;55512;50.102;19.958;2023-04-25T04:57:57;8.40;;;4.60;;
68509;SDS011;55512;50.102;19.958;2023-04-25T05:00:23;9.00;;;5.20;;
68509;SDS011;55512;50.102;19.958;2023-04-25T05:02:48;9.20;;;5.70;;
68509;SDS011;55512;50.102;19.958;2023-04-25T05:05:14;10.00;;;5.70;;
68509;SDS011;55512;50.102;19.958;2023-04-25T05:07:39;9.50;;;5.90;;
68509;SDS011;55512;50.102;19.958;2023-04-25T05:10:06;9.90;;;6.00;;
68509;SDS011;55512;50.102;19.958;2023-04-25T05:12:32;9.70;;;5.90;;
68509;SDS011;55512;50.102;19.958;2023-04-25T05:14:58;9.50;;;6.00;;
68509;SDS011;55512;50.102;19.958;2023-04-25T05:17:23;8.40;;;5.30;;
68509;SDS011;55512;50.102;19.958;2023-04-25T05:19:49;10.70;;;5.90;;
68509;SDS011;55512;50.102;19.958;2023-04-25T05:22:15;8.30;;;3.90;;
68509;SDS011;55512;50.102;19.958;2023-04-25T05:24:40;9.80;;;4.20;;
68509;SDS011;55512;50.102;19.958;2023-04-25T05:27:05;7.50;;;4.20;;
68509;SDS011;55512;50.102;19.958;2023-04-25T05:29:31;7.20;;;3.40;;
68509;SDS011;55512;50.102;19.958;2023-04-25T05:31:56;7.50;;;3.70;;
68509;SDS011;55512;50.102;19.958;2023-04-25T05:34:22;9.30;;;4.40;;
68509;SDS011;55512;50.102;19.958;2023-04-25T05:36:47;6.80;;;3.20;;
68509;SDS011;55512;50.102;19.958;2023-04-25T05:39:15;7.10;;;3.00;;
68509;SDS011;55512;50.102;19.958;2023-04-25T05:41:42;4.90;;;2.00;;
68509;SDS011;55512;50.102;19.958;2023-04-25T05:44:08;7.10;;;3.00;;
68509;SDS011;55512;50.102;19.958;2023-04-25T05:46:33;5.70;;;2.20;;
68509;SDS011;55512;50.102;19.958;2023-04-25T05:48:59;5.00;;;2.00;;
68509;SDS011;55512;50.102;19.958;2023-04-25T05:51:24;6.40;;;2.10;;
68509;SDS011;55512;50.102;19.958;2023-04-25T05:53:51;7.00;;;2.30;;
68509;SDS011;55512;50.102;19.958;2023-04-25T05:56:16;8.70;;;2.30;;
68509;SDS011;55512;50.102;19.958;2023-04-25T05:58:42;5.10;;;2.00;;
68509;SDS011;55512;50.102;19.958;2023-04-25T06:01:07;7.10;;;2.20;;
68509;SDS011;55512;50.102;19.958;2023-04-25T06:03:34;5.10;;;2.20;;
68509;SDS011;55512;50.102;19.958;2023-04-25T06:05:59;6.20;;;2.30;;
68509;SDS011;55512;50.102;19.958;2023-04-25T06:08:24;6.10;;;2.30;;
68509;SDS011;55512;50.102;19.958;2023-04-25T06:10:50;5.00;;;2.10;;
68509;SDS011;55512;50.102;19.958;2023-04-25T06:13:15;4.70;;;1.80;;
68509;SDS011;55512;50.102;19.958;2023-04-25T06:15:41;6.00;;;2.30;;
68509;SDS011;55512;50.102;19.958;2023-04-25T06:18:06;6.00;;;2.10;;
68509;SDS011;55512;50.102;19.958;2023-04-25T06:20:32;4.30;;;1.90;;
68509;SDS011;55512;50.102;19.958;2023-04-25T06:22:57;4.50;;;1.90;;
68509;SDS011;55512;50.102;19.958;2023-04-25T06:25:23;4.90;;;1.90;;
68509;SDS011;55512;50.102;19.958;2023-04-25T06:27:48;5.00;;;1.90;;
68509;SDS011;55512;50.102;19.958;2023-04-25T06:30:14;5.10;;;2.00;;
68509;SDS011;55512;50.102;19.958;2023-04-25T06:32:40;6.00;;;1.80;;
68509;SDS011;55512;50.102;19.958;2023-04-25T06:35:06;5.90;;;2.00;;
68509;SDS011;55512;50.102;19.958;2023-04-25T06:37:31;4.40;;;1.90;;
68509;SDS011;55512;50.102;19.958;2023-04-25T06:39:57;6.00;;;2.40;;
68509;SDS011;55512;50.102;19.958;2023-04-25T06:42:22;5.60;;;2.20;;
68509;SDS011;55512;50.102;19.958;2023-04-25T06:44:48;4.10;;;1.90;;
68509;SDS011;55512;50.102;19.958;2023-04-25T06:47:14;5.60;;;2.50;;
68509;SDS011;55512;50.102;19.958;2023-04-25T06:49:40;6.30;;;2.90;;
68509;SDS011;55512;50.102;19.958;2023-04-25T06:52:05;6.30;;;3.10;;
68509;SDS011;55512;50.102;19.958;2023-04-25T06:54:31;6.50;;;3.00;;
68509;SDS011;55512;50.102;19.958;2023-04-25T06:56:56;5.70;;;2.60;;
68509;SDS011;55512;50.102;19.958;2023-04-25T06:59:22;5.80;;;2.80;;
68509;SDS011;55512;50.102;19.958;2023-04-25T07:01:47;5.40;;;2.90;;
68509;SDS011;55512;50.102;19.958;2023-04-25T07:04:13;6.00;;;2.70;;
68509;SDS011;55512;50.102;19.958;2023-04-25T07:06:38;5.50;;;2.60;;
68509;SDS011;55512;50.102;19.958;2023-04-25T07:09:10;6.10;;;2.80;;
68509;SDS011;55512;50.102;19.958;2023-04-25T07:11:36;6.30;;;2.60;;
68509;SDS011;55512;50.102;19.958;2023-04-25T07:14:02;5.90;;;2.60;;
68509;SDS011;55512;50.102;19.958;2023-04-25T07:16:28;6.20;;;2.60;;
68509;SDS011;55512;50.102;19.958;2023-04-25T07:18:53;5.60;;;2.60;;
68509;SDS011;55512;50.102;19.958;2023-04-25T07:21:19;4.60;;;2.40;;
68509;SDS011;55512;50.102;19.958;2023-04-25T07:23:45;6.20;;;2.40;;
68509;SDS011;55512;50.102;19.958;2023-04-25T07:26:10;5.10;;;2.20;;
68509;SDS011;55512;50.102;19.958;2023-04-25T07:28:36;9.20;;;2.60;;
68509;SDS011;55512;50.102;19.958;2023-04-25T07:31:01;7.80;;;1.90;;
68509;SDS011;55512;50.102;19.958;2023-04-25T07:33:27;3.30;;;1.40;;
68509;SDS011;55512;50.102;19.958;2023-04-25T07:35:53;8.30;;;3.20;;
68509;SDS011;55512;50.102;19.958;2023-04-25T07:38:20;7.80;;;2.30;;
68509;SDS011;55512;50.102;19.958;2023-04-25T07:40:45;4.20;;;2.00;;
68509;SDS011;55512;50.102;19.958;2023-04-25T07:43:10;5.30;;;2.40;;
68509;SDS011;55512;50.102;19.958;2023-04-25T07:45:39;4.70;;;1.80;;
68509;SDS011;55512;50.102;19.958;2023-04-25T07:48:04;5.80;;;2.20;;
68509;SDS011;55512;50.102;19.958;2023-04-25T07:50:30;6.30;;;2.00;;
68509;SDS011;55512;50.102;19.958;2023-04-25T07:52:56;4.40;;;1.70;;
68509;SDS011;55512;50.102;19.958;2023-04-25T07:55:21;4.80;;;1.90;;
68509;SDS011;55512;50.102;19.958;2023-04-25T07:57:47;3.40;;;1.30;;
68509;SDS011;55512;50.102;19.958;2023-04-25T08:00:13;3.90;;;1.40;;
68509;SDS011;55512;50.102;19.958;2023-04-25T08:02:40;4.50;;;2.00;;
68509;SDS011;55512;50.102;19.958;2023-04-25T08:05:05;3.40;;;1.30;;
68509;SDS011;55512;50.102;19.958;2023-04-25T08:07:33;4.30;;;1.80;;
68509;SDS011;55512;50.102;19.958;2023-04-25T08:10:00;3.30;;;1.40;;
68509;SDS011;55512;50.102;19.958;2023-04-25T08:12:25;5.20;;;1.60;;
68509;SDS011;55512;50.102;19.958;2023-04-25T08:14:51;4.10;;;1.70;;
68509;SDS011;55512;50.102;19.958;2023-04-25T08:17:16;5.70;;;2.10;;
68509;SDS011;55512;50.102;19.958;2023-04-25T08:19:42;4.30;;;1.90;;
68509;SDS011;55512;50.102;19.958;2023-04-25T08:22:07;4.70;;;1.70;;
68509;SDS011;55512;50.102;19.958;2023-04-25T08:24:32;5.90;;;2.20;;
68509;SDS011;55512;50.102;19.958;2023-04-25T08:26:58;5.20;;;2.10;;
68509;SDS011;55512;50.102;19.958;2023-04-25T08:29:24;6.00;;;2.10;;
68509;SDS011;55512;50.102;19.958;2023-04-25T08:31:50;5.60;;;2.60;;
68509;SDS011;55512;50.102;19.958;2023-04-25T08:34:18;5.10;;;2.40;;
68509;SDS011;55512;50.102;19.958;2023-04-25T08:36:45;4.60;;;2.00;;
68509;SDS011;55512;50.102;19.958;2023-04-25T08:39:11;6.30;;;2.30;;
68509;SDS011;55512;50.102;19.958;2023-04-25T08:41:37;5.40;;;1.70;;
68509;SDS011;55512;50.102;19.958;2023-04-25T08:44:03;5.70;;;2.20;;
68509;SDS011;55512;50.102;19.958;2023-04-25T08:46:30;6.70;;;3.00;;
68509;SDS011;55512;50.102;19.958;2023-04-25T08:49:02;5.50;;;2.40;;
68509;SDS011;55512;50.102;19.958;2023-04-25T08:51:31;5.30;;;2.60;;
68509;SDS011;55512;50.102;19.958;2023-04-25T08:54:09;6.80;;;2.80;;
68509;SDS011;55512;50.102;19.958;2023-04-25T08:56:38;6.30;;;3.10;;
68509;SDS011;55512;50.102;19.958;2023-04-25T08:59:13;7.40;;;3.70;;
68509;SDS011;55512;50.102;19.958;2023-04-25T09:01:39;6.00;;;3.00;;
68509;SDS011;55512;50.102;19.958;2023-04-25T09:04:05;5.30;;;2.80;;
68509;SDS011;55512;50.102;19.958;2023-04-25T09:06:31;6.40;;;3.00;;
68509;SDS011;55512;50.102;19.958;2023-04-25T09:09:04;5.10;;;2.10;;
68509;SDS011;55512;50.102;19.958;2023-04-25T09:11:35;5.90;;;2.50;;
68509;SDS011;55512;50.102;19.958;2023-04-25T09:14:15;5.90;;;2.60;;
68509;SDS011;55512;50.102;19.958;2023-04-25T09:19:32;4.90;;;2.50;;
68509;SDS011;55512;50.102;19.958;2023-04-25T09:22:02;6.20;;;2.80;;
68509;SDS011;55512;50.102;19.958;2023-04-25T09:27:07;4.30;;;1.60;;
68509;SDS011;55512;50.102;19.958;2023-04-25T09:29:36;6.50;;;3.30;;
68509;SDS011;55512;50.102;19.958;2023-04-25T09:32:19;5.50;;;2.30;;
68509;SDS011;55512;50.102;19.958;2023-04-25T09:34:50;5.40;;;2.70;;
68509;SDS011;55512;50.102;19.958;2023-04-25T09:37:22;7.80;;;2.90;;
68509;SDS011;55512;50.102;19.958;2023-04-25T09:39:51;6.10;;;2.40;;
68509;SDS011;55512;50.102;19.958;2023-04-25T09:42:25;5.10;;;2.50;;
68509;SDS011;55512;50.102;19.958;2023-04-25T09:44:55;6.00;;;2.90;;
68509;SDS011;55512;50.102;19.958;2023-04-25T09:47:23;6.90;;;3.10;;
68509;SDS011;55512;50.102;19.958;2023-04-25T09:49:52;7.00;;;2.80;;
68509;SDS011;55512;50.102;19.958;2023-04-25T09:52:27;6.60;;;2.90;;
68509;SDS011;55512;50.102;19.958;2023-04-25T09:54:53;5.30;;;2.70;;
68509;SDS011;55512;50.102;19.958;2023-04-25T09:57:23;5.60;;;2.40;;
68509;SDS011;55512;50.102;19.958;2023-04-25T09:59:50;4.70;;;2.40;;
68509;SDS011;55512;50.102;19.958;2023-04-25T10:02:19;5.20;;;2.40;;
68509;SDS011;55512;50.102;19.958;2023-04-25T10:04:51;6.40;;;2.70;;
68509;SDS011;55512;50.102;19.958;2023-04-25T10:07:24;5.60;;;2.60;;
68509;SDS011;55512;50.102;19.958;2023-04-25T10:09:59;4.30;;;2.10;;
68509;SDS011;55512;50.102;19.958;2023-04-25T10:12:29;5.70;;;2.30;;
68509;SDS011;55512;50.102;19.958;2023-04-25T10:14:58;4.60;;;2.30;;
68509;SDS011;55512;50.102;19.958;2023-04-25T10:17:26;5.70;;;2.00;;
68509;SDS011;55512;50.102;19.958;2023-04-25T10:19:54;5.80;;;2.00;;
68509;SDS011;55512;50.102;19.958;2023-04-25T10:22:29;4.30;;;2.20;;
68509;SDS011;55512;50.102;19.958;2023-04-25T10:24:58;3.10;;;1.30;;
68509;SDS011;55512;50.102;19.958;2023-04-25T10:27:26;3.70;;;1.60;;
68509;SDS011;55512;50.102;19.958;2023-04-25T10:30:09;4.30;;;2.00;;
68509;SDS011;55512;50.102;19.958;2023-04-25T10:32:37;4.80;;;2.10;;
68509;SDS011;55512;50.102;19.958;2023-04-25T10:35:25;3.20;;;1.20;;
68509;SDS011;55512;50.102;19.958;2023-04-25T10:37:57;4.70;;;1.90;;
68509;SDS011;55512;50.102;19.958;2023-04-25T10:40:23;5.80;;;2.40;;
68509;SDS011;55512;50.102;19.958;2023-04-25T10:42:51;4.80;;;1.90;;
68509;SDS011;55512;50.102;19.958;2023-04-25T10:45:21;5.80;;;2.20;;
68509;SDS011;55512;50.102;19.958;2023-04-25T10:47:47;5.30;;;2.10;;
68509;SDS011;55512;50.102;19.958;2023-04-25T10:50:16;3.50;;;1.90;;
68509;SDS011;55512;50.102;19.958;2023-04-25T10:52:42;6.60;;;2.60;;
68509;SDS011;55512;50.102;19.958;2023-04-25T10:55:08;6.40;;;2.30;;
68509;SDS011;55512;50.102;19.958;2023-04-25T10:57:44;4.50;;;2.20;;
68509;SDS011;55512;50.102;19.958;2023-04-25T11:00:16;5.00;;;2.90;;
68509;SDS011;55512;50.102;19.958;2023-04-25T11:02:45;5.10;;;2.70;;
68509;SDS011;55512;50.102;19.958;2023-04-25T11:07:53;5.00;;;2.10;;
68509;SDS011;55512;50.102;19.958;2023-04-25T11:10:26;5.70;;;2.50;;
68509;SDS011;55512;50.102;19.958;2023-04-25T11:12:53;5.60;;;2.60;;
68509;SDS011;55512;50.102;19.958;2023-04-25T11:15:19;4.30;;;2.00;;
68509;SDS011;55512;50.102;19.958;2023-04-25T11:17:44;4.90;;;2.30;;
68509;SDS011;55512;50.102;19.958;2023-04-25T11:20:12;5.40;;;2.90;;
68509;SDS011;55512;50.102;19.958;2023-04-25T11:22:39;5.00;;;2.70;;
68509;SDS011;55512;50.102;19.958;2023-04-25T11:25:09;6.60;;;3.00;;
68509;SDS011;55512;50.102;19.958;2023-04-25T11:30:23;6.00;;;2.20;;
68509;SDS011;55512;50.102;19.958;2023-04-25T11:32:50;5.20;;;2.70;;
68509;SDS011;55512;50.102;19.958;2023-04-25T11:35:18;3.80;;;1.60;;
68509;SDS011;55512;50.102;19.958;2023-04-25T11:37:44;6.40;;;2.90;;
68509;SDS011;55512;50.102;19.958;2023-04-25T11:40:10;5.30;;;2.90;;
68509;SDS011;55512;50.102;19.958;2023-04-25T11:42:38;6.10;;;2.90;;
68509;SDS011;55512;50.102;19.958;2023-04-25T11:45:05;5.50;;;2.70;;
68509;SDS011;55512;50.102;19.958;2023-04-25T11:47:32;5.80;;;2.80;;
68509;SDS011;55512;50.102;19.958;2023-04-25T11:49:59;5.50;;;3.10;;
68509;SDS011;55512;50.102;19.958;2023-04-25T11:52:42;6.10;;;3.00;;
68509;SDS011;55512;50.102;19.958;2023-04-25T11:55:10;7.40;;;2.90;;
68509;SDS011;55512;50.102;19.958;2023-04-25T11:57:40;6.40;;;3.00;;
68509;SDS011;55512;50.102;19.958;2023-04-25T12:00:15;4.70;;;2.20;;
68509;SDS011;55512;50.102;19.958;2023-04-25T12:02:55;5.50;;;2.70;;
68509;SDS011;55512;50.102;19.958;2023-04-25T12:05:30;5.00;;;2.30;;
68509;SDS011;55512;50.102;19.958;2023-04-25T12:10:39;5.30;;;2.90;;
68509;SDS011;55512;50.102;19.958;2023-04-25T12:13:25;5.10;;;2.60;;
68509;SDS011;55512;50.102;19.958;2023-04-25T12:15:56;5.30;;;2.90;;
68509;SDS011;55512;50.102;19.958;2023-04-25T12:18:23;5.10;;;2.30;;
68509;SDS011;55512;50.102;19.958;2023-04-25T12:20:53;6.20;;;2.40;;
68509;SDS011;55512;50.102;19.958;2023-04-25T12:23:25;5.40;;;2.40;;
68509;SDS011;55512;50.102;19.958;2023-04-25T12:25:54;4.50;;;2.10;;
68509;SDS011;55512;50.102;19.958;2023-04-25T12:28:24;5.10;;;2.30;;
68509;SDS011;55512;50.102;19.958;2023-04-25T12:31:03;5.20;;;2.10;;
68509;SDS011;55512;50.102;19.958;2023-04-25T12:33:31;6.30;;;2.50;;
68509;SDS011;55512;50.102;19.958;2023-04-25T12:36:01;5.20;;;2.40;;
68509;SDS011;55512;50.102;19.958;2023-04-25T12:38:36;6.00;;;2.40;;
68509;SDS011;55512;50.102;19.958;2023-04-25T12:41:07;6.30;;;2.70;;
68509;SDS011;55512;50.102;19.958;2023-04-25T12:43:33;12.40;;;3.50;;
68509;SDS011;55512;50.102;19.958;2023-04-25T12:45:59;5.60;;;2.40;;
68509;SDS011;55512;50.102;19.958;2023-04-25T12:48:25;9.90;;;3.00;;
68509;SDS011;55512;50.102;19.958;2023-04-25T12:50:51;15.60;;;4.60;;
68509;SDS011;55512;50.102;19.958;2023-04-25T12:53:21;4.20;;;1.70;;
68509;SDS011;55512;50.102;19.958;2023-04-25T12:55:48;4.90;;;1.90;;
68509;SDS011;55512;50.102;19.958;2023-04-25T12:58:18;5.70;;;2.70;;
68509;SDS011;55512;50.102;19.958;2023-04-25T13:00:44;3.60;;;1.70;;
68509;SDS011;55512;50.102;19.958;2023-04-25T13:03:10;4.80;;;2.30;;
68509;SDS011;55512;50.102;19.958;2023-04-25T13:05:37;4.30;;;2.00;;
68509;SDS011;55512;50.102;19.958;2023-04-25T13:08:03;5.00;;;2.30;;
68509;SDS011;55512;50.102;19.958;2023-04-25T13:10:29;6.60;;;2.80;;
68509;SDS011;55512;50.102;19.958;2023-04-25T13:12:55;5.10;;;1.80;;
68509;SDS011;55512;50.102;19.958;2023-04-25T13:15:21;5.50;;;1.80;;
68509;SDS011;55512;50.102;19.958;2023-04-25T13:17:47;4.60;;;1.70;;
68509;SDS011;55512;50.102;19.958;2023-04-25T13:20:12;5.20;;;1.70;;
68509;SDS011;55512;50.102;19.958;2023-04-25T13:22:40;3.80;;;1.50;;
68509;SDS011;55512;50.102;19.958;2023-04-25T13:25:07;4.50;;;2.20;;
68509;SDS011;55512;50.102;19.958;2023-04-25T13:27:33;5.70;;;2.00;;
68509;SDS011;55512;50.102;19.958;2023-04-25T13:30:01;4.90;;;2.10;;
68509;SDS011;55512;50.102;19.958;2023-04-25T13:32:36;5.40;;;2.40;;
68509;SDS011;55512;50.102;19.958;2023-04-25T13:35:07;4.70;;;1.70;;
68509;SDS011;55512;50.102;19.958;2023-04-25T13:37:34;4.50;;;2.00;;
68509;SDS011;55512;50.102;19.958;2023-04-25T13:40:01;4.00;;;1.80;;
68509;SDS011;55512;50.102;19.958;2023-04-25T13:42:32;4.60;;;2.20;;
68509;SDS011;55512;50.102;19.958;2023-04-25T13:44:58;5.60;;;2.30;;
68509;SDS011;55512;50.102;19.958;2023-04-25T13:47:25;5.10;;;1.80;;
68509;SDS011;55512;50.102;19.958;2023-04-25T13:49:50;4.40;;;1.90;;
68509;SDS011;55512;50.102;19.958;2023-04-25T13:52:16;4.20;;;1.90;;
68509;SDS011;55512;50.102;19.958;2023-04-25T13:54:42;5.00;;;2.40;;
68509;SDS011;55512;50.102;19.958;2023-04-25T13:57:07;6.70;;;2.30;;
68509;SDS011;55512;50.102;19.958;2023-04-25T13:59:33;33.70;;;7.20;;
68509;SDS011;55512;50.102;19.958;2023-04-25T14:01:59;5.30;;;2.60;;
68509;SDS011;55512;50.102;19.958;2023-04-25T14:04:24;7.60;;;2.60;;
68509;SDS011;55512;50.102;19.958;2023-04-25T14:06:51;5.70;;;2.10;;
68509;SDS011;55512;50.102;19.958;2023-04-25T14:09:18;6.40;;;2.20;;
68509;SDS011;55512;50.102;19.958;2023-04-25T14:11:44;4.30;;;1.80;;
68509;SDS011;55512;50.102;19.958;2023-04-25T14:14:10;5.00;;;1.90;;
68509;SDS011;55512;50.102;19.958;2023-04-25T14:16:35;5.00;;;2.10;;
68509;SDS011;55512;50.102;19.958;2023-04-25T14:19:01;5.80;;;1.80;;
68509;SDS011;55512;50.102;19.958;2023-04-25T14:21:27;4.70;;;2.10;;
68509;SDS011;55512;50.102;19.958;2023-04-25T14:23:53;4.40;;;2.00;;
68509;SDS011;55512;50.102;19.958;2023-04-25T14:26:19;4.90;;;2.00;;
68509;SDS011;55512;50.102;19.958;2023-04-25T14:28:44;6.00;;;2.60;;
68509;SDS011;55512;50.102;19.958;2023-04-25T14:31:10;4.60;;;2.00;;
68509;SDS011;55512;50.102;19.958;2023-04-25T14:33:35;3.70;;;1.60;;
68509;SDS011;55512;50.102;19.958;2023-04-25T14:36:03;4.50;;;1.70;;
68509;SDS011;55512;50.102;19.958;2023-04-25T14:38:28;5.10;;;2.10;;
68509;SDS011;55512;50.102;19.958;2023-04-25T14:40:54;6.00;;;2.20;;
68509;SDS011;55512;50.102;19.958;2023-04-25T14:43:19;5.60;;;1.90;;
68509;SDS011;55512;50.102;19.958;2023-04-25T14:45:45;3.90;;;1.60;;